Time;durP1;ratioP1;P1;durP2;ratioP2;P2;SDS_P1;SDS_P2;PMS_P1;PMS_P2;Temp;Humidity;BMP_temperature;BMP_pressure;BME280_temperature;BME280_humidity;BME280_pressure;Samples;Min_cycle;Max_cycle;Signal;HPM_P1;HPM_P2
2021/05/18 00:00:45;;;;;;;0.70;0.57;;;12.70;99.90;;;;;;5064517;28;20486;-52
2021/05/18 00:03:11;;;;;;;0.68;0.50;;;12.70;99.90;;;;;;5064303;28;20347;-51
2021/05/18 00:05:40;;;;;;;0.40;0.40;;;12.70;99.90;;;;;;5063927;28;20032;-49
2021/05/18 00:08:09;;;;;;;0.40;0.40;;;12.80;99.90;;;;;;5063959;28;20032;-49
2021/05/18 00:13:25;;;;;;;1.38;0.60;;;12.70;99.90;;;;;;5064196;28;20113;-51
2021/05/18 00:15:54;;;;;;;0.52;0.52;;;12.60;99.90;;;;;;5063145;28;20034;-49
2021/05/18 00:18:22;;;;;;;0.38;0.38;;;12.70;99.90;;;;;;5064499;28;20040;-52
2021/05/18 00:20:49;;;;;;;0.40;0.40;;;12.70;99.90;;;;;;5064195;28;20158;-48
2021/05/18 00:23:15;;;;;;;0.80;0.47;;;12.60;99.90;;;;;;5063819;28;20039;-47
2021/05/18 00:25:41;;;;;;;0.40;0.30;;;12.60;99.90;;;;;;5063396;28;20036;-53
2021/05/18 00:28:08;;;;;;;0.50;0.50;;;12.50;99.90;;;;;;5064014;28;20086;-49
2021/05/18 00:30:34;;;;;;;0.80;0.40;;;12.30;99.90;;;;;;5063914;28;20033;-50
2021/05/18 00:33:04;;;;;;;0.43;0.40;;;12.50;99.90;;;;;;5063980;28;20499;-49
2021/05/18 00:35:30;;;;;;;0.60;0.50;;;12.40;99.90;;;;;;5063247;28;20391;-49
2021/05/18 00:37:55;;;;;;;1.00;0.60;;;12.10;99.90;;;;;;5065223;28;20033;-50
2021/05/18 00:40:21;;;;;;;0.50;0.50;;;11.90;99.90;;;;;;5065932;28;20021;-49
2021/05/18 00:42:50;;;;;;;0.80;0.47;;;12.00;99.90;;;;;;5066215;28;20025;-48
2021/05/18 00:45:24;;;;;;;2.20;0.60;;;12.20;99.90;;;;;;5065872;28;20025;-51
2021/05/18 00:47:51;;;;;;;0.95;0.60;;;12.20;99.90;;;;;;5063938;28;20039;-51
2021/05/18 00:50:18;;;;;;;0.60;0.50;;;12.30;99.90;;;;;;5065803;28;20032;-48
2021/05/18 00:52:44;;;;;;;0.90;0.65;;;12.30;99.90;;;;;;5066339;28;20027;-51
2021/05/18 00:55:19;;;;;;;0.60;0.60;;;12.20;99.90;;;;;;5065370;28;20021;-51
2021/05/18 01:00:31;;;;;;;0.57;0.50;;;12.00;99.90;;;;;;5066824;28;20090;-52
2021/05/18 01:02:56;;;;;;;0.60;0.60;;;12.00;99.90;;;;;;5066410;28;20529;-52
2021/05/18 01:06:18;;;;;;;0.73;0.50;;;11.80;99.90;;;;;;5065780;28;20029;-51
2021/05/18 01:08:10;;;;;;;1.50;0.65;;;11.70;99.90;;;;;;5064546;28;20032;-50
2021/05/18 01:10:35;;;;;;;0.70;0.55;;;12.00;99.90;;;;;;5066129;28;20044;-49
2021/05/18 01:13:02;;;;;;;0.88;0.52;;;12.00;99.90;;;;;;5066537;28;20033;-49
2021/05/18 01:15:27;;;;;;;0.60;0.60;;;12.10;99.90;;;;;;5065069;28;20025;-49
2021/05/18 01:17:53;;;;;;;0.60;0.50;;;12.10;99.90;;;;;;5064030;28;20482;-50
2021/05/18 01:20:19;;;;;;;0.75;0.50;;;12.20;99.90;;;;;;5065983;28;20405;-53
2021/05/18 01:22:47;;;;;;;0.40;0.40;;;12.20;99.90;;;;;;5066026;28;20013;-52
2021/05/18 01:25:14;;;;;;;0.40;0.30;;;12.20;99.90;;;;;;5064950;28;20074;-52
2021/05/18 01:27:40;;;;;;;1.45;0.40;;;12.30;99.90;;;;;;5063925;28;20450;-52
2021/05/18 01:30:07;;;;;;;0.43;0.38;;;12.20;99.90;;;;;;5065961;28;20033;-51
2021/05/18 01:32:34;;;;;;;1.77;0.65;;;12.20;99.90;;;;;;5066580;28;20253;-52
2021/05/18 01:35:00;;;;;;;1.55;0.70;;;12.20;99.90;;;;;;5065811;28;20047;-53
2021/05/18 01:37:26;;;;;;;0.60;0.60;;;11.90;99.90;;;;;;5062595;28;20056;-52
2021/05/18 01:42:50;;;;;;;0.50;0.47;;;11.80;99.90;;;;;;5046445;28;20032;-52
2021/05/18 01:45:21;;;;;;;0.55;0.40;;;11.90;99.90;;;;;;5045656;28;20032;-52
2021/05/18 01:47:55;;;;;;;2.53;0.70;;;12.00;99.90;;;;;;5055794;28;20017;-52
2021/05/18 01:50:26;;;;;;;2.65;0.43;;;12.00;99.90;;;;;;5065632;28;20169;-50
2021/05/18 01:52:52;;;;;;;0.57;0.43;;;12.00;99.90;;;;;;5065704;28;20032;-52
2021/05/18 01:55:25;;;;;;;0.70;0.60;;;12.10;99.90;;;;;;5065617;28;20020;-52
2021/05/18 01:57:52;;;;;;;0.40;0.40;;;12.10;99.90;;;;;;5064798;28;20998;-52
2021/05/18 02:00:22;;;;;;;0.90;0.40;;;12.00;99.90;;;;;;5068240;28;20067;-52
2021/05/18 02:02:48;;;;;;;0.55;0.55;;;12.00;99.90;;;;;;5069062;28;20383;-53
2021/05/18 02:05:16;;;;;;;0.63;0.50;;;11.90;99.90;;;;;;5068206;28;20126;-48
2021/05/18 02:07:44;;;;;;;0.43;0.43;;;12.00;99.90;;;;;;5068465;28;20032;-48
2021/05/18 02:10:15;;;;;;;0.95;0.55;;;12.00;99.90;;;;;;5068944;28;20070;-52
2021/05/18 02:12:41;;;;;;;1.58;0.47;;;12.20;99.90;;;;;;5068851;28;20024;-49
2021/05/18 02:15:30;;;;;;;0.40;0.40;;;12.30;99.90;;;;;;5069136;28;20445;-49
2021/05/18 02:18:50;;;;;;;1.65;0.50;;;12.30;99.90;;;;;;5067843;28;20692;-50
2021/05/18 02:26:15;;;;;;;2.08;1.50;;;12.30;99.90;;;;;;5068491;28;20054;-51
2021/05/18 02:28:42;;;;;;;1.77;1.30;;;12.20;99.90;;;;;;5067968;28;20566;-52
2021/05/18 02:31:08;;;;;;;1.50;1.40;;;12.10;99.90;;;;;;5068306;28;20103;-52
2021/05/18 02:33:33;;;;;;;3.50;1.23;;;12.10;99.90;;;;;;5069016;28;20104;-52
2021/05/18 02:35:59;;;;;;;1.35;1.00;;;12.00;99.90;;;;;;5067427;28;20039;-50
2021/05/18 02:38:25;;;;;;;1.77;1.02;;;11.70;99.90;;;;;;5067483;28;20025;-49
2021/05/18 02:40:50;;;;;;;3.35;1.23;;;11.70;99.90;;;;;;5067035;28;20057;-49
2021/05/18 02:43:22;;;;;;;0.90;0.80;;;11.80;99.90;;;;;;5068398;28;20528;-50
2021/05/18 02:51:16;;;;;;;1.25;0.73;;;11.30;99.90;;;;;;5068094;28;20107;-51
2021/05/18 02:53:42;;;;;;;0.50;0.50;;;11.30;99.90;;;;;;5068355;28;20028;-52
2021/05/18 02:58:36;;;;;;;1.02;0.40;;;11.40;99.90;;;;;;5067003;28;20102;-50
2021/05/18 03:01:01;;;;;;;0.60;0.40;;;11.50;99.90;;;;;;5068683;28;20414;-52
2021/05/18 03:03:27;;;;;;;0.80;0.50;;;11.60;99.90;;;;;;5068097;28;20028;-53
2021/05/18 03:05:53;;;;;;;0.40;0.40;;;11.70;99.90;;;;;;5068003;28;20035;-50
2021/05/18 03:08:20;;;;;;;1.17;0.60;;;11.60;99.90;;;;;;5066052;28;20032;-50
2021/05/18 03:10:46;;;;;;;0.60;0.40;;;11.60;99.90;;;;;;5067205;28;20047;-52
2021/05/18 03:13:12;;;;;;;0.90;0.50;;;11.60;99.90;;;;;;5067335;28;20029;-52
2021/05/18 03:15:38;;;;;;;0.57;0.50;;;11.60;99.90;;;;;;5066922;28;20028;-51
2021/05/18 03:18:04;;;;;;;0.93;0.50;;;11.50;99.90;;;;;;5066096;28;20054;-50
2021/05/18 03:20:30;;;;;;;1.00;0.50;;;11.50;99.90;;;;;;5068527;28;20107;-52
2021/05/18 03:22:56;;;;;;;0.60;0.40;;;11.40;99.90;;;;;;5067435;28;20024;-52
2021/05/18 03:25:22;;;;;;;0.98;0.50;;;11.50;99.90;;;;;;5067428;28;20035;-50
2021/05/18 03:27:49;;;;;;;0.30;0.30;;;11.50;99.90;;;;;;5064906;28;20052;-49
2021/05/18 03:35:39;;;;;;;0.50;0.50;;;11.20;99.90;;;;;;5067352;28;20086;-49
2021/05/18 03:38:14;;;;;;;0.60;0.50;;;11.30;99.90;;;;;;5066172;28;20035;-50
2021/05/18 03:40:44;;;;;;;0.40;0.30;;;11.30;99.90;;;;;;5067359;28;20103;-52
2021/05/18 03:43:36;;;;;;;0.38;0.35;;;11.30;99.90;;;;;;5066956;28;20428;-52
2021/05/18 04:02:47;;;;;;;0.60;0.60;;;11.20;99.90;;;;;;5067242;28;20086;-57
2021/05/18 04:10:12;;;;;;;2.33;0.50;;;11.10;99.90;;;;;;5066619;28;20021;-48
2021/05/18 04:51:14;;;;;;;2.05;0.70;;;11.30;99.90;;;;;;5046749;28;20055;-51
2021/05/18 04:59:15;;;;;;;0.80;0.65;;;11.30;99.90;;;;;;5066097;28;20031;-50
2021/05/18 05:09:31;;;;;;;0.75;0.60;;;11.30;99.90;;;;;;5065888;28;20048;-50
2021/05/18 05:14:38;;;;;;;0.73;0.50;;;11.10;99.90;;;;;;5062509;28;20457;-51
2021/05/18 05:17:04;;;;;;;0.63;0.63;;;11.10;99.90;;;;;;5065853;28;20033;-52
2021/05/18 05:19:30;;;;;;;0.80;0.70;;;11.20;99.90;;;;;;5065769;28;20483;-52
2021/05/18 05:21:57;;;;;;;0.43;0.40;;;11.20;99.90;;;;;;5065868;28;20024;-51
2021/05/18 05:24:23;;;;;;;1.50;0.80;;;11.30;99.90;;;;;;5065742;28;20020;-52
2021/05/18 05:26:50;;;;;;;0.68;0.60;;;11.40;99.90;;;;;;5065142;28;20035;-52
2021/05/18 05:29:17;;;;;;;1.17;0.70;;;11.50;99.90;;;;;;5065654;28;20024;-51
2021/05/18 05:31:43;;;;;;;0.63;0.63;;;11.50;99.90;;;;;;5065878;28;20074;-50
2021/05/18 05:34:09;;;;;;;1.30;0.60;;;11.40;99.90;;;;;;5066244;28;20032;-51
2021/05/18 05:36:37;;;;;;;1.77;0.60;;;11.40;99.90;;;;;;5067921;28;20078;-52
2021/05/18 05:39:08;;;;;;;0.82;0.50;;;11.50;99.90;;;;;;5069850;28;20013;-52
2021/05/18 05:41:33;;;;;;;0.63;0.63;;;11.60;99.90;;;;;;5070096;28;20678;-52
2021/05/18 05:43:59;;;;;;;0.68;0.63;;;11.70;99.90;;;;;;5069972;28;20035;-51
2021/05/18 05:46:25;;;;;;;0.70;0.70;;;11.70;99.90;;;;;;5068162;28;20032;-50
2021/05/18 05:48:54;;;;;;;1.15;0.80;;;11.70;99.90;;;;;;5069176;28;20085;-52
2021/05/18 05:51:27;;;;;;;0.63;0.60;;;11.80;99.90;;;;;;5069255;28;20028;-52
2021/05/18 05:53:55;;;;;;;1.55;0.55;;;11.90;99.90;;;;;;5069135;28;20472;-51
2021/05/18 05:56:21;;;;;;;3.30;0.80;;;12.00;99.90;;;;;;5068408;28;20020;-52
2021/05/18 05:58:48;;;;;;;0.52;0.52;;;12.00;99.90;;;;;;5069043;28;20549;-52
2021/05/18 06:01:15;;;;;;;0.65;0.40;;;12.00;99.90;;;;;;5066969;28;20384;-52
2021/05/18 06:03:41;;;;;;;0.50;0.47;;;12.00;99.90;;;;;;5068750;28;20082;-52
2021/05/18 06:06:07;;;;;;;1.85;0.50;;;12.10;99.90;;;;;;5068592;28;20040;-52
2021/05/18 06:08:38;;;;;;;0.75;0.47;;;12.00;99.90;;;;;;5066989;28;20085;-52
2021/05/18 06:48:39;;;;;;;2.35;0.73;;;12.90;99.90;;;;;;5063947;28;20153;-49
2021/05/18 06:51:05;;;;;;;1.90;0.70;;;12.90;99.90;;;;;;5067895;28;20036;-52
2021/05/18 06:53:31;;;;;;;1.27;0.55;;;13.00;99.90;;;;;;5068431;28;20025;-49
2021/05/18 06:55:58;;;;;;;1.65;0.65;;;13.00;99.90;;;;;;5068076;28;20021;-48
2021/05/18 07:01:22;;;;;;;0.63;0.40;;;13.10;99.90;;;;;;5051287;28;20040;-48
2021/05/18 07:03:53;;;;;;;2.40;0.70;;;13.10;99.90;;;;;;5070225;28;20032;-50
2021/05/18 07:07:00;;;;;;;0.70;0.50;;;13.10;99.90;;;;;;5062763;28;20032;-49
2021/05/18 07:09:12;;;;;;;1.08;0.52;;;13.20;99.90;;;;;;5045550;28;20032;-49
2021/05/18 07:11:37;;;;;;;1.75;1.25;;;13.20;99.90;;;;;;5057862;28;20028;-50
2021/05/18 07:14:04;;;;;;;0.93;0.60;;;13.30;99.90;;;;;;5065002;28;20028;-50
2021/05/18 07:16:30;;;;;;;1.27;0.80;;;13.30;99.90;;;;;;5063591;28;20027;-50
2021/05/18 07:18:55;;;;;;;1.55;0.57;;;13.20;99.90;;;;;;5064538;28;20410;-49
2021/05/18 07:21:21;;;;;;;0.70;0.40;;;13.20;99.90;;;;;;5065539;28;20039;-50
2021/05/18 07:23:48;;;;;;;3.03;0.50;;;13.30;99.90;;;;;;5065453;28;20025;-49
2021/05/18 07:26:14;;;;;;;1.13;0.50;;;13.30;99.90;;;;;;5061956;28;20043;-50
2021/05/18 07:28:40;;;;;;;1.17;0.40;;;13.30;99.90;;;;;;5065940;28;20021;-53
2021/05/18 07:31:06;;;;;;;1.60;0.50;;;13.30;99.90;;;;;;5063452;28;20355;-51
2021/05/18 07:33:34;;;;;;;0.90;0.50;;;13.40;99.90;;;;;;5064144;28;20070;-49
2021/05/18 07:36:09;;;;;;;0.77;0.50;;;13.40;99.90;;;;;;5065518;28;20036;-49
2021/05/18 07:38:38;;;;;;;1.30;0.52;;;13.30;99.90;;;;;;5065083;28;20103;-48
2021/05/18 07:41:05;;;;;;;2.65;0.60;;;13.30;99.90;;;;;;5064602;28;20036;-49
2021/05/18 07:43:31;;;;;;;1.83;1.40;;;13.10;99.90;;;;;;5054091;28;20087;-50
2021/05/18 07:46:00;;;;;;;2.20;0.65;;;13.40;99.90;;;;;;5045415;28;20033;-53
2021/05/18 07:51:47;;;;;;;0.68;0.43;;;13.60;99.90;;;;;;5045661;28;20032;-49
2021/05/18 08:07:12;;;;;;;0.80;0.40;;;13.70;99.90;;;;;;5044859;28;20039;-51
2021/05/18 08:10:03;;;;;;;0.50;0.40;;;13.80;99.90;;;;;;5045312;28;20058;-51
2021/05/18 08:12:27;;;;;;;1.95;0.60;;;13.90;99.90;;;;;;5045089;28;20033;-52
2021/05/18 08:15:13;;;;;;;0.88;0.50;;;14.00;99.90;;;;;;5044806;28;20071;-51
2021/05/18 10:16:55;;;;;;;0.65;0.47;;;15.30;99.90;;;;;;5066775;28;20085;-50
2021/05/18 10:35:51;;;;;;;1.17;0.70;;;15.80;99.90;;;;;;5067009;28;20036;-49
2021/05/18 10:38:21;;;;;;;1.50;0.85;;;15.90;99.90;;;;;;5038401;28;20044;-49
2021/05/18 10:40:49;;;;;;;1.63;0.73;;;15.90;99.90;;;;;;5067062;28;20025;-53
2021/05/18 10:43:29;;;;;;;1.70;0.73;;;15.80;99.90;;;;;;5065570;28;20244;-49
2021/05/18 10:45:55;;;;;;;2.45;0.80;;;15.70;99.90;;;;;;5066629;28;20032;-51
2021/05/18 10:48:52;;;;;;;1.52;0.80;;;15.70;99.90;;;;;;5066545;28;20491;-53
2021/05/18 10:51:33;;;;;;;3.17;1.02;;;15.80;99.90;;;;;;5066520;28;20024;-50
2021/05/18 10:54:22;;;;;;;1.98;0.85;;;15.80;99.90;;;;;;5066392;28;20111;-53
2021/05/18 10:57:00;;;;;;;1.20;0.80;;;16.00;99.90;;;;;;5065288;28;20032;-51
2021/05/18 10:59:39;;;;;;;2.28;0.80;;;16.20;99.90;;;;;;5065710;28;20017;-53
2021/05/18 11:02:28;;;;;;;0.52;0.50;;;16.20;99.90;;;;;;5065976;28;20020;-53
2021/05/18 11:05:04;;;;;;;1.63;1.10;;;16.50;99.90;;;;;;5065412;28;20024;-52
2021/05/18 11:07:36;;;;;;;0.70;0.50;;;16.60;99.90;;;;;;5062941;28;20070;-53
2021/05/18 11:10:22;;;;;;;2.08;0.80;;;16.60;99.90;;;;;;5057320;28;20040;-53
2021/05/18 11:12:51;;;;;;;0.93;0.63;;;16.50;99.90;;;;;;5067499;28;20032;-52
2021/05/18 11:15:24;;;;;;;1.17;0.70;;;16.70;99.90;;;;;;5063774;28;20074;-52
2021/05/18 11:17:54;;;;;;;2.10;0.70;;;16.50;99.90;;;;;;5067065;28;20479;-51
2021/05/18 11:20:35;;;;;;;2.70;0.70;;;16.60;99.90;;;;;;5064795;28;20040;-51
2021/05/18 11:23:29;;;;;;;1.98;0.70;;;16.50;99.90;;;;;;5063136;28;20493;-53
2021/05/18 11:26:08;;;;;;;0.70;0.35;;;16.70;99.90;;;;;;5064522;28;20094;-51
2021/05/18 11:28:41;;;;;;;0.52;0.40;;;16.70;99.90;;;;;;5065316;28;20115;-51
2021/05/18 11:31:20;;;;;;;2.17;0.80;;;16.80;99.90;;;;;;5066915;28;20104;-50
2021/05/18 11:33:53;;;;;;;1.00;0.50;;;16.70;99.90;;;;;;5066209;28;20047;-53
2021/05/18 11:36:26;;;;;;;2.00;0.70;;;17.00;99.90;;;;;;5066780;28;20110;-53
2021/05/18 11:39:01;;;;;;;0.88;0.40;;;17.30;99.90;;;;;;5066921;28;20697;-52
2021/05/18 11:41:34;;;;;;;1.17;0.68;;;17.60;99.90;;;;;;5065874;28;20099;-53
2021/05/18 11:44:01;;;;;;;1.33;0.70;;;17.60;99.90;;;;;;5066766;28;20131;-54
2021/05/18 11:46:29;;;;;;;2.35;0.60;;;17.60;99.90;;;;;;5066625;28;20029;-53
2021/05/18 11:48:55;;;;;;;0.47;0.47;;;17.60;99.90;;;;;;5066688;28;20024;-52
2021/05/18 11:51:21;;;;;;;1.35;0.50;;;17.60;99.90;;;;;;5065663;28;20039;-53
2021/05/18 11:53:49;;;;;;;1.23;0.60;;;17.60;99.90;;;;;;5066770;28;20020;-52
2021/05/18 11:56:27;;;;;;;0.82;0.50;;;17.50;99.90;;;;;;5064162;28;20040;-53
2021/05/18 11:59:10;;;;;;;1.02;0.40;;;17.40;99.90;;;;;;5066253;28;20146;-52
2021/05/18 12:01:47;;;;;;;1.33;0.50;;;17.40;99.90;;;;;;5065860;28;20029;-52
2021/05/18 12:04:18;;;;;;;1.17;0.40;;;17.30;99.90;;;;;;5062923;28;20032;-50
2021/05/18 12:07:05;;;;;;;1.45;0.77;;;17.30;99.90;;;;;;5064500;28;20028;-52
2021/05/18 12:09:33;;;;;;;0.95;0.55;;;17.40;99.90;;;;;;5052660;28;20024;-50
2021/05/18 12:12:03;;;;;;;1.48;0.60;;;17.30;99.90;;;;;;5064559;28;20402;-52
2021/05/18 12:14:30;;;;;;;1.05;0.52;;;17.00;99.90;;;;;;5064122;28;20078;-50
2021/05/18 12:16:58;;;;;;;0.80;0.55;;;17.10;99.90;;;;;;5064223;28;20449;-52
2021/05/18 12:19:24;;;;;;;0.95;0.50;;;17.10;99.90;;;;;;5064408;28;20028;-52
2021/05/18 12:21:55;;;;;;;2.17;0.63;;;16.70;99.90;;;;;;5063484;28;20027;-49
2021/05/18 12:24:22;;;;;;;2.75;0.52;;;16.70;99.90;;;;;;5063100;28;20024;-51
2021/05/18 12:26:57;;;;;;;0.95;0.50;;;16.50;99.90;;;;;;5063916;28;20028;-51
2021/05/18 12:29:42;;;;;;;2.17;0.80;;;16.20;99.90;;;;;;5064554;28;20024;-52
2021/05/18 12:32:27;;;;;;;1.60;0.50;;;16.30;99.90;;;;;;5064141;28;20101;-49
2021/05/18 12:34:53;;;;;;;;;;;16.00;99.90;;;;;;5065148;28;20024;-51
2021/05/18 12:37:34;;;;;;;1.60;0.70;;;15.80;99.90;;;;;;5063282;28;20002;-48
2021/05/18 12:40:02;;;;;;;1.63;0.50;;;15.90;99.90;;;;;;5062030;28;20029;-49
2021/05/18 12:42:29;;;;;;;1.08;0.50;;;15.90;99.90;;;;;;5063095;28;20025;-52
2021/05/18 12:45:01;;;;;;;0.68;0.57;;;16.00;99.90;;;;;;5062477;28;20041;-53
2021/05/18 12:47:35;;;;;;;1.38;0.60;;;15.80;99.90;;;;;;5063722;28;20574;-49
2021/05/18 12:50:05;;;;;;;;;;;16.00;99.90;;;;;;5062714;28;20506;-49
2021/05/18 12:52:43;;;;;;;1.23;0.60;;;16.00;99.90;;;;;;5062860;28;19908;-49
2021/05/18 12:55:23;;;;;;;0.47;0.47;;;16.00;99.90;;;;;;5060055;28;20025;-50
2021/05/18 12:57:54;;;;;;;0.88;0.60;;;16.00;99.90;;;;;;5064304;28;20107;-50
2021/05/18 13:00:39;;;;;;;2.35;0.50;;;15.90;99.90;;;;;;5063923;28;20500;-48
2021/05/18 13:03:23;;;;;;;1.85;0.50;;;15.70;99.90;;;;;;5063580;28;20032;-49
2021/05/18 13:05:53;;;;;;;0.95;0.40;;;15.70;99.90;;;;;;5064242;28;20021;-52
2021/05/18 13:08:20;;;;;;;0.68;0.50;;;15.60;99.90;;;;;;5063969;28;20499;-49
2021/05/18 13:13:20;;;;;;;0.98;0.50;;;15.70;99.90;;;;;;5063439;28;20024;-51
2021/05/18 13:15:47;;;;;;;0.73;0.50;;;15.60;99.90;;;;;;5061349;28;20017;-50
2021/05/18 13:18:15;;;;;;;1.08;0.40;;;15.70;99.90;;;;;;5062555;28;20051;-49
2021/05/18 13:20:53;;;;;;;1.10;0.50;;;15.50;99.90;;;;;;5063330;28;20079;-50
2021/05/18 13:23:55;;;;;;;0.70;0.45;;;15.60;99.90;;;;;;5062656;28;20024;-51
2021/05/18 13:26:26;;;;;;;0.50;0.43;;;15.70;99.90;;;;;;5055588;28;20068;-51
2021/05/18 13:28:58;;;;;;;;;;;15.70;99.90;;;;;;5064651;28;20457;-50
2021/05/18 13:31:24;;;;;;;1.50;0.50;;;15.70;99.90;;;;;;5064238;28;20101;-51
2021/05/18 13:33:50;;;;;;;0.80;0.28;;;15.70;99.90;;;;;;5063315;28;20094;-50
2021/05/18 13:36:15;;;;;;;0.68;0.63;;;15.70;99.90;;;;;;5062840;28;20024;-49
2021/05/18 13:38:41;;;;;;;0.80;0.57;;;15.60;99.90;;;;;;5063728;28;20427;-50
2021/05/18 13:41:08;;;;;;;0.43;0.40;;;15.80;99.90;;;;;;5061256;28;20032;-49
2021/05/18 13:43:35;;;;;;;1.48;0.32;;;15.70;99.90;;;;;;5062138;28;20044;-52
2021/05/18 13:46:01;;;;;;;0.68;0.50;;;15.70;99.90;;;;;;5061225;28;20685;-49
2021/05/18 13:48:27;;;;;;;0.38;0.38;;;15.80;99.90;;;;;;5062978;28;20479;-51
2021/05/18 13:50:53;;;;;;;1.35;0.52;;;15.70;99.90;;;;;;5064022;28;20531;-51
2021/05/18 13:53:19;;;;;;;2.22;0.60;;;15.50;99.90;;;;;;5061827;28;20020;-49
2021/05/18 13:55:45;;;;;;;0.73;0.60;;;15.50;99.90;;;;;;5064229;28;20091;-51
2021/05/18 13:58:10;;;;;;;1.23;0.32;;;15.60;99.90;;;;;;5064490;28;20024;-48
2021/05/18 14:00:36;;;;;;;1.63;0.57;;;15.60;99.90;;;;;;5069396;28;20028;-48
2021/05/18 14:03:03;;;;;;;0.73;0.40;;;15.60;99.90;;;;;;5069426;28;20080;-48
2021/05/18 14:05:30;;;;;;;0.40;0.40;;;15.50;99.90;;;;;;5067892;28;20096;-49
2021/05/18 14:08:33;;;;;;;1.05;0.47;;;15.40;99.90;;;;;;5065560;28;20108;-50
2021/05/18 14:11:06;;;;;;;0.85;0.50;;;15.40;99.90;;;;;;5067425;28;20524;-49
2021/05/18 14:13:36;;;;;;;0.65;0.40;;;15.40;99.90;;;;;;5067548;28;20035;-49
2021/05/18 14:16:03;;;;;;;1.73;0.43;;;15.50;99.90;;;;;;5067347;28;20031;-50
2021/05/18 14:18:31;;;;;;;1.10;0.57;;;15.40;99.90;;;;;;5067842;28;20047;-49
2021/05/18 14:21:00;;;;;;;1.40;0.50;;;15.40;99.90;;;;;;5067562;28;20020;-48
2021/05/18 14:23:32;;;;;;;1.95;0.47;;;15.50;99.90;;;;;;5067048;28;20021;-50
2021/05/18 14:25:57;;;;;;;1.95;0.60;;;15.50;99.90;;;;;;5065792;28;20417;-48
2021/05/18 14:28:23;;;;;;;1.25;0.50;;;15.40;99.90;;;;;;5067693;28;20033;-49
2021/05/18 14:30:50;;;;;;;1.42;0.60;;;15.10;99.90;;;;;;5067295;28;20025;-48
2021/05/18 14:33:15;;;;;;;1.52;0.70;;;15.00;99.90;;;;;;5067181;28;20050;-48
2021/05/18 14:35:41;;;;;;;1.70;0.70;;;14.90;99.90;;;;;;5067246;28;20550;-50
2021/05/18 14:38:11;;;;;;;2.80;0.50;;;14.80;99.90;;;;;;5066963;28;20283;-51
2021/05/18 14:45:39;;;;;;;0.47;0.40;;;15.10;99.90;;;;;;5067066;28;20649;-48
2021/05/18 14:48:17;;;;;;;2.38;0.60;;;15.10;99.90;;;;;;5066733;28;20433;-49
2021/05/18 14:53:54;;;;;;;2.55;0.80;;;14.80;99.90;;;;;;5066901;28;20039;-51
2021/05/18 14:56:21;;;;;;;2.97;0.60;;;14.80;99.90;;;;;;5066668;28;20494;-51
2021/05/18 14:58:47;;;;;;;1.70;0.60;;;14.90;99.90;;;;;;5066827;28;20044;-48
2021/05/18 15:01:13;;;;;;;1.25;0.70;;;14.90;99.90;;;;;;5066725;28;20568;-48
2021/05/18 15:03:39;;;;;;;0.40;0.40;;;15.00;99.90;;;;;;5066637;28;20021;-48
2021/05/18 15:06:06;;;;;;;0.40;0.40;;;15.00;99.90;;;;;;5066193;28;20494;-49
2021/05/18 15:08:32;;;;;;;0.73;0.40;;;15.00;99.90;;;;;;5066047;28;20024;-50
2021/05/18 15:11:02;;;;;;;0.73;0.50;;;14.80;99.90;;;;;;5066385;28;20044;-47
2021/05/18 15:13:28;;;;;;;0.90;0.40;;;14.70;99.90;;;;;;5066164;28;20079;-50
2021/05/18 15:15:54;;;;;;;1.63;0.50;;;14.50;99.90;;;;;;5066885;28;20048;-52
2021/05/18 15:18:20;;;;;;;0.43;0.30;;;14.60;99.90;;;;;;5066202;28;20024;-51
2021/05/18 15:20:46;;;;;;;0.88;0.50;;;14.60;99.90;;;;;;5066692;28;20036;-49
2021/05/18 15:23:13;;;;;;;0.60;0.55;;;14.70;99.90;;;;;;5066075;28;20016;-48
2021/05/18 15:25:40;;;;;;;0.30;0.30;;;14.70;99.90;;;;;;5066171;28;20060;-49
2021/05/18 15:28:07;;;;;;;0.20;0.20;;;14.80;99.90;;;;;;5065791;28;20024;-48
2021/05/18 15:30:33;;;;;;;0.80;0.50;;;14.70;99.90;;;;;;5066322;28;20024;-49
2021/05/18 15:32:59;;;;;;;0.63;0.50;;;14.60;99.90;;;;;;5064682;28;20107;-49
2021/05/18 15:35:25;;;;;;;0.60;0.40;;;14.50;99.90;;;;;;5065676;28;20546;-49
2021/05/18 15:37:50;;;;;;;1.48;0.50;;;14.50;99.90;;;;;;5062927;28;20039;-48
2021/05/18 15:40:16;;;;;;;2.05;0.80;;;14.40;99.90;;;;;;5064038;28;20030;-51
2021/05/18 15:42:43;;;;;;;3.50;1.00;;;13.70;99.90;;;;;;5067304;28;20020;-50
2021/05/18 15:45:09;;;;;;;3.85;1.08;;;13.20;99.90;;;;;;5066900;28;20036;-48
2021/05/18 15:47:36;;;;;;;2.05;0.70;;;13.10;99.90;;;;;;5064522;28;20106;-51
2021/05/18 15:50:04;;;;;;;1.35;1.05;;;13.00;99.90;;;;;;5066966;28;20028;-48
2021/05/18 15:52:30;;;;;;;1.25;0.75;;;12.90;99.90;;;;;;5066974;28;20023;-49
2021/05/18 15:54:55;;;;;;;3.22;0.80;;;12.80;99.90;;;;;;5067322;28;20024;-51
2021/05/18 15:57:21;;;;;;;4.55;1.30;;;12.70;99.90;;;;;;5067192;28;20090;-49
2021/05/18 15:59:50;;;;;;;5.28;1.42;;;12.40;99.90;;;;;;5066794;28;20364;-51
2021/05/18 16:02:16;;;;;;;3.53;1.30;;;12.30;99.90;;;;;;5066451;28;20024;-48
2021/05/18 16:04:43;;;;;;;2.55;0.70;;;12.20;99.90;;;;;;5066634;28;20052;-48
2021/05/18 16:07:12;;;;;;;3.58;1.08;;;12.10;99.90;;;;;;5066189;28;20024;-50
2021/05/18 16:09:38;;;;;;;3.40;1.15;;;12.10;99.90;;;;;;5066251;28;20155;-50
2021/05/18 16:12:06;;;;;;;1.80;1.05;;;12.20;99.90;;;;;;5063874;28;20123;-50
2021/05/18 16:14:34;;;;;;;2.20;0.90;;;12.30;99.90;;;;;;5062583;28;20021;-51
2021/05/18 16:17:01;;;;;;;2.75;0.88;;;12.20;99.90;;;;;;5063997;28;20103;-49
2021/05/18 16:19:27;;;;;;;1.92;0.80;;;12.30;99.90;;;;;;5064555;28;20067;-48
2021/05/18 16:21:54;;;;;;;1.63;1.00;;;12.40;99.90;;;;;;5065707;28;20483;-49
2021/05/18 16:24:21;;;;;;;2.60;1.20;;;12.40;99.90;;;;;;5064730;28;20047;-49
2021/05/18 16:26:47;;;;;;;4.18;1.10;;;12.20;99.90;;;;;;5065279;28;20021;-50
2021/05/18 16:29:13;;;;;;;1.17;0.88;;;12.40;99.90;;;;;;5064679;28;20233;-48
2021/05/18 16:31:39;;;;;;;2.40;1.05;;;12.30;99.90;;;;;;5063831;28;20043;-51
2021/05/18 16:34:05;;;;;;;3.92;1.08;;;12.30;99.90;;;;;;5064574;28;20535;-48
2021/05/18 16:36:32;;;;;;;1.35;0.98;;;12.30;99.90;;;;;;5065322;28;20111;-49
2021/05/18 16:38:58;;;;;;;1.45;0.88;;;12.30;99.90;;;;;;5064590;28;20055;-49
2021/05/18 16:41:24;;;;;;;1.25;0.65;;;12.10;99.90;;;;;;5063771;28;20412;-47
2021/05/18 16:43:50;;;;;;;1.42;0.60;;;12.10;99.90;;;;;;5063686;28;20040;-50
2021/05/18 16:46:16;;;;;;;1.50;0.70;;;12.10;99.90;;;;;;5063189;28;20074;-51
2021/05/18 16:48:43;;;;;;;1.77;0.70;;;12.10;99.90;;;;;;5068571;28;20039;-48
2021/05/18 16:51:09;;;;;;;1.42;0.80;;;12.10;99.90;;;;;;5064448;28;20036;-50
2021/05/18 16:53:35;;;;;;;2.80;0.65;;;12.00;99.90;;;;;;5064450;28;20029;-48
2021/05/18 16:56:07;;;;;;;1.85;0.82;;;12.00;99.90;;;;;;5066024;28;20044;-50
2021/05/18 16:58:34;;;;;;;2.05;0.80;;;11.80;99.90;;;;;;5065667;28;20035;-50
2021/05/18 17:01:01;;;;;;;1.35;0.80;;;11.90;99.90;;;;;;5064862;28;20048;-50
2021/05/18 17:03:26;;;;;;;2.65;0.80;;;12.00;99.90;;;;;;5064303;28;20021;-48
2021/05/18 17:05:52;;;;;;;2.83;1.05;;;12.00;99.90;;;;;;5065123;28;20021;-49
2021/05/18 17:08:18;;;;;;;1.95;0.90;;;11.90;99.90;;;;;;5064395;28;20032;-49
2021/05/18 17:10:45;;;;;;;2.40;0.98;;;11.80;99.90;;;;;;5064099;28;20343;-50
2021/05/18 17:13:11;;;;;;;2.60;0.90;;;11.80;99.90;;;;;;5064467;28;20104;-50
2021/05/18 17:15:38;;;;;;;1.25;0.90;;;11.90;99.90;;;;;;5063820;28;20020;-50
2021/05/18 17:18:04;;;;;;;3.75;2.40;;;11.70;99.90;;;;;;5064258;28;20044;-48
2021/05/18 17:20:32;;;;;;;4.40;2.47;;;11.60;99.90;;;;;;5064374;28;20040;-49
2021/05/18 17:22:59;;;;;;;3.47;1.60;;;11.60;99.90;;;;;;5064224;28;20410;-47
2021/05/18 17:25:26;;;;;;;2.25;1.30;;;11.70;99.90;;;;;;5064237;28;20039;-51
2021/05/18 17:27:53;;;;;;;2.35;1.10;;;11.70;99.90;;;;;;5065119;28;20038;-49
2021/05/18 17:30:23;;;;;;;1.52;0.95;;;11.60;99.90;;;;;;5064847;28;20025;-51
2021/05/18 17:32:50;;;;;;;1.33;0.80;;;11.50;99.90;;;;;;5068180;28;20508;-52
2021/05/18 17:35:16;;;;;;;5.40;1.48;;;11.40;99.90;;;;;;5066208;28;20039;-52
2021/05/18 17:37:42;;;;;;;4.65;1.40;;;11.30;99.90;;;;;;5067168;28;20021;-51
2021/05/18 17:40:09;;;;;;;2.15;0.90;;;11.20;99.90;;;;;;5066025;28;20615;-48
2021/05/18 17:42:35;;;;;;;2.45;0.90;;;11.20;99.90;;;;;;5068805;28;20534;-51
2021/05/18 17:45:05;;;;;;;2.53;0.90;;;11.20;99.90;;;;;;5065816;28;20174;-48
2021/05/18 17:47:31;;;;;;;2.40;0.93;;;11.20;99.90;;;;;;5068954;28;20025;-50
2021/05/18 17:49:57;;;;;;;4.32;1.45;;;11.10;99.90;;;;;;5068655;28;20036;-50
2021/05/18 17:52:23;;;;;;;2.63;1.00;;;11.10;99.90;;;;;;5069956;28;20030;-50
2021/05/18 17:54:48;;;;;;;1.17;0.73;;;11.10;99.90;;;;;;5069130;28;20418;-51
2021/05/18 17:57:14;;;;;;;2.35;0.90;;;11.20;99.90;;;;;;5069200;28;20612;-51
2021/05/18 17:59:40;;;;;;;3.58;0.93;;;11.20;99.90;;;;;;5069412;28;20048;-51
2021/05/18 18:02:06;;;;;;;2.30;0.98;;;11.20;99.90;;;;;;5065876;28;20020;-50
2021/05/18 18:04:33;;;;;;;2.58;1.13;;;11.20;99.90;;;;;;5066832;28;20233;-50